createdAt,value
2023-01-30T00:01:31.350Z,5.65
2023-01-30T00:04:00.026Z,5.61
2023-01-30T00:06:28.412Z,5.61
2023-01-30T00:08:56.204Z,5.60
2023-01-30T00:11:24.647Z,5.56
2023-01-30T00:13:52.498Z,5.57
2023-01-30T00:16:20.438Z,5.60
2023-01-30T00:18:48.342Z,5.59
2023-01-30T00:21:16.176Z,5.56
2023-01-30T00:23:44.878Z,5.52
2023-01-30T00:26:13.339Z,5.53
2023-01-30T00:28:41.431Z,5.54
2023-01-30T00:31:09.485Z,5.51
2023-01-30T00:33:39.643Z,5.54
2023-01-30T00:36:08.131Z,5.51
2023-01-30T00:38:36.091Z,5.55
2023-01-30T00:41:03.933Z,5.57
2023-01-30T00:43:50.349Z,5.59
2023-01-30T00:46:51.487Z,5.58
2023-01-30T00:49:21.371Z,5.52
2023-01-30T00:51:49.612Z,5.57
2023-01-30T00:54:17.440Z,5.58
2023-01-30T00:56:45.314Z,5.59
2023-01-30T00:59:13.057Z,5.59
2023-01-30T01:01:41.489Z,5.58
2023-01-30T01:04:10.453Z,5.60
2023-01-30T01:06:39.983Z,5.57
2023-01-30T01:09:07.881Z,5.62
2023-01-30T01:11:36.319Z,5.58
2023-01-30T01:14:05.666Z,5.62
2023-01-30T01:16:35.492Z,5.64
2023-01-30T01:19:04.464Z,5.60
2023-01-30T01:21:32.201Z,5.66
2023-01-30T01:24:00.908Z,5.68
2023-01-30T01:26:28.705Z,5.77
2023-01-30T01:28:58.682Z,5.74
2023-01-30T01:31:27.021Z,5.67
2023-01-30T01:33:57.245Z,5.84
2023-01-30T01:36:52.180Z,5.87
2023-01-30T01:39:14.449Z,5.98
2023-01-30T01:41:43.025Z,6.03
2023-01-30T01:44:13.858Z,6.04
2023-01-30T01:46:59.349Z,6.04
2023-01-30T01:49:32.656Z,6.07
2023-01-30T01:52:11.559Z,6.09
2023-01-30T01:54:53.979Z,6.06
2023-01-30T01:57:49.795Z,6.13
2023-01-30T02:00:21.700Z,6.10
2023-01-30T02:03:02.800Z,6.10
2023-01-30T02:05:36.209Z,6.05
2023-01-30T02:08:08.885Z,6.06
2023-01-30T02:11:18.682Z,6.05
2023-01-30T02:13:48.304Z,6.01
2023-01-30T02:16:16.046Z,5.99
2023-01-30T02:18:46.943Z,6.07
2023-01-30T02:21:45.532Z,6.10
2023-01-30T02:24:57.442Z,6.08
2023-01-30T02:27:42.023Z,5.93
2023-01-30T02:30:43.727Z,6.07
2023-01-30T02:33:59.094Z,6.10
2023-01-30T02:36:41.820Z,6.11
2023-01-30T02:39:38.769Z,6.14
2023-01-30T02:42:25.543Z,6.12
2023-01-30T02:45:34.232Z,6.01
2023-01-30T02:48:34.867Z,5.97
2023-01-30T02:51:36.986Z,5.98
2023-01-30T02:54:24.508Z,5.95
2023-01-30T02:57:23.100Z,5.96
2023-01-30T03:00:02.039Z,5.90
2023-01-30T03:03:07.038Z,5.98
2023-01-30T03:06:19.895Z,5.97
2023-01-30T03:09:16.457Z,6.01
2023-01-30T03:12:03.887Z,6.00
2023-01-30T03:14:56.973Z,6.00
2023-01-30T03:17:27.225Z,5.93
2023-01-30T03:20:00.562Z,5.93
2023-01-30T03:22:28.718Z,5.94
2023-01-30T03:24:57.577Z,5.94
2023-01-30T03:27:25.932Z,5.91
2023-01-30T03:29:53.738Z,5.93
2023-01-30T03:32:21.681Z,5.95
2023-01-30T03:34:51.182Z,5.94
2023-01-30T03:37:19.186Z,5.99
2023-01-30T03:39:47.104Z,5.99
2023-01-30T03:42:16.363Z,6.07
2023-01-30T03:44:44.172Z,6.10
2023-01-30T03:47:12.025Z,6.14
2023-01-30T03:49:39.960Z,6.17
2023-01-30T03:52:08.561Z,6.23
2023-01-30T03:54:36.496Z,6.29
2023-01-30T03:57:05.181Z,6.32
2023-01-30T03:59:33.147Z,6.39
2023-01-30T04:02:06.803Z,6.44
2023-01-30T04:04:35.328Z,6.42
2023-01-30T04:07:05.666Z,6.51
2023-01-30T04:09:34.609Z,6.53
2023-01-30T04:12:03.176Z,6.57
2023-01-30T04:14:36.302Z,6.53
2023-01-30T04:17:27.026Z,6.57
2023-01-30T04:20:13.435Z,6.57
2023-01-30T04:22:47.043Z,6.61
2023-01-30T04:25:14.926Z,6.57
2023-01-30T04:27:44.559Z,6.59
2023-01-30T04:30:29.459Z,6.51
2023-01-30T04:33:14.139Z,6.53
2023-01-30T04:35:59.453Z,6.52
2023-01-30T04:38:29.632Z,6.55
2023-01-30T04:40:59.214Z,6.49
2023-01-30T04:43:30.467Z,6.49
2023-01-30T04:46:18.039Z,6.42
2023-01-30T04:48:45.862Z,6.49
2023-01-30T04:51:14.656Z,6.46
2023-01-30T04:53:42.611Z,6.39
2023-01-30T04:56:10.575Z,6.42
2023-01-30T04:58:38.588Z,6.40
2023-01-30T05:01:23.230Z,6.47
2023-01-30T05:03:53.143Z,6.38
2023-01-30T05:06:22.731Z,6.42
2023-01-30T05:08:53.084Z,6.40
2023-01-30T05:11:21.889Z,6.36
2023-01-30T05:13:50.176Z,6.34
2023-01-30T05:16:19.567Z,6.37
2023-01-30T05:18:47.638Z,6.36
2023-01-30T05:21:28.649Z,6.34
2023-01-30T05:23:57.577Z,6.36
2023-01-30T05:26:25.747Z,6.45
2023-01-30T05:28:56.230Z,6.47
2023-01-30T05:31:24.955Z,6.43
2023-01-30T05:33:53.437Z,6.40
2023-01-30T05:36:23.310Z,6.41
2023-01-30T05:38:51.173Z,6.41
2023-01-30T05:41:19.388Z,6.42
2023-01-30T05:43:51.493Z,6.39
2023-01-30T05:46:19.936Z,6.37
2023-01-30T05:48:47.864Z,6.34
2023-01-30T05:51:25.256Z,6.40
2023-01-30T05:53:53.249Z,6.40
2023-01-30T05:56:21.137Z,6.43
2023-01-30T05:58:54.793Z,6.47
2023-01-30T06:01:23.947Z,6.45
2023-01-30T06:03:52.214Z,6.36
2023-01-30T06:06:20.728Z,6.33
2023-01-30T06:08:52.282Z,6.26
2023-01-30T06:11:20.159Z,6.21
2023-01-30T06:13:48.254Z,6.14
2023-01-30T06:16:18.263Z,6.13
2023-01-30T06:18:49.403Z,6.02
2023-01-30T06:21:17.844Z,6.00
2023-01-30T06:23:46.448Z,5.90
2023-01-30T06:26:14.427Z,5.90
2023-01-30T06:28:43.008Z,5.87
2023-01-30T06:31:10.872Z,5.86
2023-01-30T06:33:38.626Z,5.87
2023-01-30T06:36:07.072Z,5.90
2023-01-30T06:38:35.440Z,5.96
2023-01-30T06:41:03.272Z,6.02
2023-01-30T06:43:31.096Z,6.03
2023-01-30T06:46:00.442Z,6.10
2023-01-30T06:48:28.499Z,6.15
2023-01-30T06:50:56.469Z,6.21
2023-01-30T06:53:30.193Z,6.19
2023-01-30T06:56:02.065Z,6.27
2023-01-30T06:58:29.828Z,6.26
2023-01-30T07:00:57.696Z,6.25
2023-01-30T07:03:25.517Z,6.29
2023-01-30T07:05:53.396Z,6.27
2023-01-30T07:08:23.238Z,6.26
2023-01-30T07:10:52.091Z,6.18
2023-01-30T07:13:19.802Z,6.18
2023-01-30T07:15:47.718Z,6.20
2023-01-30T07:18:15.524Z,6.19
2023-01-30T07:20:48.099Z,6.25
2023-01-30T07:23:16.184Z,6.26
2023-01-30T07:25:44.170Z,6.27
2023-01-30T07:28:15.008Z,6.30
2023-01-30T07:30:42.804Z,6.25
2023-01-30T07:33:11.006Z,6.26
2023-01-30T07:35:39.159Z,6.20
2023-01-30T07:38:06.950Z,6.24
2023-01-30T07:40:35.251Z,6.28
2023-01-30T07:43:07.089Z,6.31
2023-01-30T07:45:44.568Z,6.31
2023-01-30T07:48:16.752Z,6.34
2023-01-30T07:50:45.319Z,6.32
2023-01-30T07:53:16.161Z,6.31
2023-01-30T07:55:44.575Z,6.29
2023-01-30T07:58:15.566Z,6.25
2023-01-30T08:00:44.664Z,6.25
2023-01-30T08:03:17.129Z,6.30
2023-01-30T08:05:48.323Z,6.30
2023-01-30T08:08:16.460Z,6.34
2023-01-30T08:10:44.505Z,6.36
2023-01-30T08:13:12.821Z,6.40
2023-01-30T08:15:40.551Z,6.38
2023-01-30T08:18:08.506Z,6.38
2023-01-30T08:20:37.376Z,6.41
2023-01-30T08:23:06.153Z,6.39
2023-01-30T08:25:35.542Z,6.37
2023-01-30T08:28:04.331Z,6.41
2023-01-30T08:30:33.450Z,6.41
2023-01-30T08:33:01.400Z,6.42
2023-01-30T08:35:29.526Z,6.38
2023-01-30T08:37:57.297Z,6.31
2023-01-30T08:40:25.070Z,6.27
2023-01-30T08:42:52.779Z,6.30
2023-01-30T08:45:20.694Z,6.33
2023-01-30T08:48:04.711Z,6.33
2023-01-30T08:50:33.751Z,6.34
2023-01-30T08:53:09.913Z,6.35
2023-01-30T08:55:37.980Z,6.33
2023-01-30T08:58:05.822Z,6.39
2023-01-30T09:00:33.788Z,6.45
2023-01-30T09:03:04.202Z,6.50
2023-01-30T09:05:32.677Z,6.46
2023-01-30T09:08:00.672Z,6.58
2023-01-30T09:10:28.505Z,6.62
2023-01-30T09:12:57.102Z,6.61
2023-01-30T09:15:26.205Z,6.60
2023-01-30T09:17:54.504Z,6.60
2023-01-30T09:20:22.396Z,6.63
2023-01-30T09:22:50.719Z,6.59
2023-01-30T09:25:18.819Z,6.66
2023-01-30T09:27:50.430Z,6.69
2023-01-30T09:30:19.167Z,6.72
2023-01-30T09:32:48.093Z,6.75
2023-01-30T09:35:16.219Z,6.75
2023-01-30T09:37:52.291Z,6.81
2023-01-30T09:40:31.037Z,6.84
2023-01-30T09:43:48.862Z,6.87
2023-01-30T09:46:39.954Z,6.90
2023-01-30T09:49:25.810Z,6.94
2023-01-30T09:52:55.140Z,7.00
2023-01-30T09:55:30.768Z,6.97
2023-01-30T09:58:01.730Z,7.04
2023-01-30T10:00:44.202Z,7.07
2023-01-30T10:03:33.764Z,7.07
2023-01-30T10:06:11.293Z,7.08
2023-01-30T10:09:11.454Z,7.13
2023-01-30T10:12:04.262Z,7.09
2023-01-30T10:14:53.824Z,7.11
2023-01-30T10:17:41.757Z,7.10
2023-01-30T10:20:20.478Z,7.10
2023-01-30T10:23:12.754Z,7.15
2023-01-30T10:25:49.888Z,7.16
2023-01-30T10:28:35.112Z,7.21
2023-01-30T10:31:12.561Z,7.21
2023-01-30T10:33:59.046Z,7.29
2023-01-30T10:36:47.479Z,7.26
2023-01-30T10:39:55.569Z,7.27
2023-01-30T10:43:04.282Z,7.24
2023-01-30T10:45:44.687Z,7.25
2023-01-30T10:48:42.535Z,7.29
2023-01-30T10:51:23.072Z,7.32
2023-01-30T10:53:58.027Z,7.35
2023-01-30T10:56:39.589Z,7.41
2023-01-30T10:59:26.641Z,7.43
2023-01-30T11:02:00.311Z,7.42
2023-01-30T11:04:49.220Z,7.41
2023-01-30T11:07:17.117Z,7.39
2023-01-30T11:09:49.199Z,7.42
2023-01-30T11:12:17.464Z,7.42
2023-01-30T11:14:55.023Z,7.46
2023-01-30T11:17:35.348Z,7.44
2023-01-30T11:20:17.267Z,7.44
2023-01-30T11:23:05.725Z,7.42
2023-01-30T11:25:52.862Z,7.32
2023-01-30T11:28:27.895Z,7.33
2023-01-30T11:31:01.133Z,7.34
2023-01-30T11:33:40.368Z,7.37
2023-01-30T11:36:31.857Z,7.32
2023-01-30T11:39:15.748Z,7.38
2023-01-30T11:41:58.716Z,7.37
2023-01-30T11:44:36.173Z,7.34
2023-01-30T11:47:25.851Z,7.34
2023-01-30T11:50:07.223Z,7.34
2023-01-30T11:52:48.097Z,7.30
2023-01-30T11:55:20.044Z,7.34
2023-01-30T11:57:58.515Z,7.39
2023-01-30T12:00:41.126Z,7.43
2023-01-30T12:03:18.238Z,7.45
2023-01-30T12:05:47.973Z,7.46
2023-01-30T12:08:40.979Z,7.48
2023-01-30T12:11:40.141Z,7.44
2023-01-30T12:14:32.045Z,7.39
2023-01-30T12:17:27.404Z,7.33
2023-01-30T12:20:30.059Z,7.37
2023-01-30T12:23:40.814Z,7.38
2023-01-30T12:26:27.772Z,7.35
2023-01-30T12:29:33.444Z,7.39
2023-01-30T12:32:11.471Z,7.34
2023-01-30T12:34:41.038Z,7.33
2023-01-30T12:37:43.272Z,7.38
2023-01-30T12:40:28.991Z,7.45
2023-01-30T12:43:25.460Z,7.48
2023-01-30T12:46:29.565Z,7.47
2023-01-30T12:49:38.954Z,7.44
2023-01-30T12:52:15.521Z,7.46
2023-01-30T12:55:05.030Z,7.50
2023-01-30T12:57:53.741Z,7.55
2023-01-30T13:00:52.155Z,7.55
2023-01-30T13:03:26.824Z,7.49
2023-01-30T13:06:35.080Z,7.51
2023-01-30T13:09:17.578Z,7.54
2023-01-30T13:12:02.108Z,7.56
2023-01-30T13:15:13.061Z,7.64
2023-01-30T13:18:15.750Z,7.74
2023-01-30T13:21:37.186Z,7.76
2023-01-30T13:24:25.524Z,7.72
2023-01-30T13:26:57.430Z,7.79
2023-01-30T13:29:52.807Z,7.76
2023-01-30T13:32:39.357Z,7.83
2023-01-30T13:35:28.845Z,7.90
2023-01-30T13:37:58.542Z,7.90
2023-01-30T13:40:41.788Z,7.97
2023-01-30T13:43:17.294Z,7.96
2023-01-30T13:45:48.339Z,7.99
2023-01-30T13:48:38.570Z,8.06
2023-01-30T13:51:27.700Z,8.12
2023-01-30T13:54:20.327Z,8.11
2023-01-30T13:57:20.670Z,8.06
2023-01-30T14:00:26.376Z,8.09
2023-01-30T14:03:06.602Z,8.12
2023-01-30T14:05:52.846Z,8.07
2023-01-30T14:08:48.267Z,8.08
2023-01-30T14:11:46.821Z,8.09
2023-01-30T14:14:38.347Z,8.14
2023-01-30T14:17:17.246Z,8.20
2023-01-30T14:20:20.797Z,8.18
2023-01-30T14:22:57.982Z,8.33
2023-01-30T14:25:25.731Z,8.37
2023-01-30T14:28:16.222Z,8.41
2023-01-30T14:30:58.634Z,8.46
2023-01-30T14:33:26.676Z,8.47
2023-01-30T14:36:00.556Z,8.56
2023-01-30T14:38:32.023Z,8.64
2023-01-30T14:40:59.973Z,8.70
2023-01-30T14:43:43.015Z,8.79
2023-01-30T14:46:19.718Z,8.84
2023-01-30T14:49:05.399Z,8.88
2023-01-30T14:51:44.549Z,8.89
2023-01-30T14:54:12.613Z,8.90
2023-01-30T14:57:23.382Z,8.88
2023-01-30T15:00:17.876Z,8.86
2023-01-30T15:02:58.393Z,8.84
2023-01-30T15:05:32.535Z,8.83
2023-01-30T15:08:26.509Z,8.87
2023-01-30T15:11:18.571Z,8.90
2023-01-30T15:14:08.930Z,8.72
2023-01-30T15:16:59.803Z,8.82
2023-01-30T15:20:01.517Z,8.83
2023-01-30T15:23:04.270Z,8.82
2023-01-30T15:25:53.127Z,8.86
2023-01-30T15:28:41.866Z,8.89
2023-01-30T15:31:23.235Z,8.90
2023-01-30T15:33:56.786Z,8.90
2023-01-30T15:36:34.162Z,8.94
2023-01-30T15:39:17.968Z,8.88
2023-01-30T15:41:46.225Z,8.89
2023-01-30T15:44:14.214Z,8.91
2023-01-30T15:47:06.067Z,8.96
2023-01-30T15:49:55.520Z,8.94
2023-01-30T15:52:37.723Z,8.91
2023-01-30T15:55:07.789Z,8.90
2023-01-30T15:57:39.798Z,8.92
2023-01-30T16:00:11.538Z,8.92
2023-01-30T16:02:43.084Z,8.92
2023-01-30T16:05:25.463Z,8.95
2023-01-30T16:07:56.714Z,8.89
2023-01-30T16:10:30.559Z,8.88
2023-01-30T16:13:02.283Z,8.80
2023-01-30T16:15:39.050Z,8.79
2023-01-30T16:18:41.187Z,8.84
2023-01-30T16:21:28.698Z,8.83
2023-01-30T16:24:04.995Z,8.83
2023-01-30T16:26:35.691Z,8.85
2023-01-30T16:29:08.168Z,8.87
2023-01-30T16:31:39.899Z,8.89
2023-01-30T16:34:33.166Z,8.87
2023-01-30T16:37:16.356Z,8.79
2023-01-30T16:39:48.481Z,8.78
2023-01-30T16:42:30.480Z,8.72
2023-01-30T16:45:36.432Z,8.64
2023-01-30T16:48:35.134Z,8.57
2023-01-30T16:51:03.035Z,8.57
2023-01-30T16:53:33.555Z,8.53
2023-01-30T16:56:14.669Z,8.58
2023-01-30T16:59:03.471Z,8.53
2023-01-30T17:01:39.149Z,8.49
2023-01-30T17:04:22.135Z,8.44
2023-01-30T17:07:01.120Z,8.44
2023-01-30T17:09:55.129Z,8.47
2023-01-30T17:12:31.351Z,8.44
2023-01-30T17:15:14.101Z,8.40
2023-01-30T17:17:42.887Z,8.31
2023-01-30T17:20:13.481Z,8.28
2023-01-30T17:22:46.850Z,8.24
2023-01-30T17:25:27.043Z,8.26
2023-01-30T17:27:57.045Z,8.19
2023-01-30T17:30:24.873Z,8.23
2023-01-30T17:32:52.676Z,8.25
2023-01-30T17:35:20.699Z,8.23
2023-01-30T17:37:59.628Z,8.22
2023-01-30T17:40:36.616Z,8.20
2023-01-30T17:43:05.022Z,8.19
2023-01-30T17:45:33.188Z,8.18
2023-01-30T17:48:01.798Z,8.20
2023-01-30T17:50:32.456Z,8.17
2023-01-30T17:53:00.338Z,8.15
2023-01-30T17:55:28.529Z,8.14
2023-01-30T17:57:56.573Z,8.16
2023-01-30T18:00:24.620Z,8.17
2023-01-30T18:02:53.133Z,8.18
2023-01-30T18:05:22.753Z,8.16
2023-01-30T18:07:50.767Z,8.14
2023-01-30T18:10:21.818Z,8.16
2023-01-30T18:12:49.674Z,8.11
2023-01-30T18:15:17.882Z,8.12
2023-01-30T18:17:48.820Z,8.12
2023-01-30T18:20:20.271Z,8.09
2023-01-30T18:22:48.742Z,8.12
2023-01-30T18:25:17.565Z,8.14
2023-01-30T18:27:47.515Z,8.15
2023-01-30T18:30:17.604Z,8.21
2023-01-30T18:32:53.599Z,8.22
2023-01-30T18:35:22.983Z,8.25
2023-01-30T18:37:51.161Z,8.27
2023-01-30T18:40:20.600Z,8.32
2023-01-30T18:42:48.762Z,8.31
2023-01-30T18:45:17.110Z,8.36
2023-01-30T18:47:44.870Z,8.33
2023-01-30T18:50:12.626Z,8.39
2023-01-30T18:52:40.520Z,8.41
2023-01-30T18:55:08.838Z,8.46
2023-01-30T18:57:36.690Z,8.47
2023-01-30T19:00:05.128Z,8.49
2023-01-30T19:02:32.966Z,8.52
2023-01-30T19:05:00.728Z,8.52
2023-01-30T19:07:28.573Z,8.51
2023-01-30T19:09:56.459Z,8.56
2023-01-30T19:12:42.927Z,8.58
2023-01-30T19:15:10.945Z,8.52
2023-01-30T19:17:38.696Z,8.62
2023-01-30T19:20:10.826Z,8.65
2023-01-30T19:22:39.178Z,8.64
2023-01-30T19:25:07.735Z,8.62
2023-01-30T19:27:38.314Z,8.66
2023-01-30T19:30:07.285Z,8.66
2023-01-30T19:32:35.323Z,8.69
2023-01-30T19:35:03.304Z,8.62
2023-01-30T19:37:31.101Z,8.65
2023-01-30T19:39:58.947Z,8.66
2023-01-30T19:42:26.825Z,8.60
2023-01-30T19:44:54.674Z,8.68
2023-01-30T19:47:23.375Z,8.70
2023-01-30T19:49:51.186Z,8.72
2023-01-30T19:52:19.074Z,8.72
2023-01-30T19:54:47.481Z,8.70
2023-01-30T19:57:15.497Z,8.73
2023-01-30T19:59:44.880Z,8.71
2023-01-30T20:02:13.541Z,8.75
2023-01-30T20:04:41.471Z,8.76
2023-01-30T20:07:09.301Z,8.78
2023-01-30T20:09:37.192Z,8.78
2023-01-30T20:12:05.176Z,8.82
2023-01-30T20:14:33.364Z,8.79
2023-01-30T20:17:01.195Z,8.85
2023-01-30T20:19:29.067Z,8.88
2023-01-30T20:21:57.189Z,8.85
2023-01-30T20:24:25.188Z,8.89
2023-01-30T20:26:53.117Z,8.90
2023-01-30T20:29:21.848Z,8.91
2023-01-30T20:31:52.379Z,8.91
2023-01-30T20:34:20.917Z,8.88
2023-01-30T20:36:49.343Z,8.88
2023-01-30T20:39:17.196Z,8.82
2023-01-30T20:41:44.977Z,8.83
2023-01-30T20:44:14.441Z,8.86
2023-01-30T20:46:46.793Z,8.87
2023-01-30T20:49:34.487Z,8.81
2023-01-30T20:52:22.133Z,8.80
2023-01-30T20:54:49.959Z,8.79
2023-01-30T20:57:18.035Z,8.82
2023-01-30T20:59:46.795Z,8.83
2023-01-30T21:02:14.544Z,8.87
2023-01-30T21:04:42.416Z,8.84
2023-01-30T21:07:10.287Z,8.86
2023-01-30T21:09:38.413Z,8.89
2023-01-30T21:12:06.591Z,8.82
2023-01-30T21:14:34.424Z,8.88
2023-01-30T21:17:02.361Z,8.90
2023-01-30T21:19:30.186Z,8.92
2023-01-30T21:21:58.188Z,8.94
2023-01-30T21:24:28.755Z,8.97
2023-01-30T21:26:57.063Z,8.97
2023-01-30T21:29:27.636Z,9.00
2023-01-30T21:31:57.483Z,8.95
2023-01-30T21:34:25.652Z,9.02
2023-01-30T21:37:12.334Z,9.04
2023-01-30T21:39:59.081Z,9.02
2023-01-30T21:42:45.555Z,9.03
2023-01-30T21:45:13.574Z,9.05
2023-01-30T21:47:41.430Z,9.10
2023-01-30T21:50:10.151Z,9.11
2023-01-30T21:52:38.065Z,9.10
2023-01-30T21:55:06.112Z,9.14
2023-01-30T21:57:33.967Z,9.16
2023-01-30T22:00:02.270Z,9.17
2023-01-30T22:02:33.038Z,9.13
2023-01-30T22:05:00.861Z,9.12
2023-01-30T22:07:28.675Z,9.15
2023-01-30T22:09:57.098Z,9.13
2023-01-30T22:12:26.067Z,9.12
2023-01-30T22:14:54.638Z,9.09
2023-01-30T22:17:22.632Z,9.08
2023-01-30T22:19:50.404Z,9.09
2023-01-30T22:22:19.196Z,9.09
2023-01-30T22:24:46.992Z,9.06
2023-01-30T22:27:16.334Z,9.07
2023-01-30T22:29:44.007Z,9.06
2023-01-30T22:32:11.847Z,9.06
2023-01-30T22:34:39.752Z,9.09
2023-01-30T22:37:07.609Z,9.07
2023-01-30T22:39:36.048Z,9.05
2023-01-30T22:42:04.073Z,9.00
2023-01-30T22:44:31.817Z,8.96
2023-01-30T22:47:00.070Z,8.98
2023-01-30T22:49:27.895Z,8.99
2023-01-30T22:51:56.502Z,8.98
2023-01-30T22:54:25.132Z,8.97
2023-01-30T22:56:53.372Z,8.99
2023-01-30T22:59:21.813Z,8.92
2023-01-30T23:01:53.403Z,8.96
2023-01-30T23:04:23.664Z,8.94
2023-01-30T23:06:52.573Z,8.94
2023-01-30T23:09:23.360Z,8.88
2023-01-30T23:12:18.699Z,8.89
2023-01-30T23:14:46.668Z,8.89
2023-01-30T23:17:32.989Z,8.90
2023-01-30T23:20:00.996Z,8.84
2023-01-30T23:22:28.691Z,8.87
2023-01-30T23:24:56.510Z,8.89
2023-01-30T23:27:25.159Z,8.85
2023-01-30T23:29:53.028Z,8.85
2023-01-30T23:32:21.037Z,8.84
2023-01-30T23:34:49.227Z,8.83
2023-01-30T23:37:17.516Z,8.83
2023-01-30T23:39:45.684Z,8.79
2023-01-30T23:42:13.409Z,8.75
2023-01-30T23:44:41.208Z,8.82
2023-01-30T23:47:09.070Z,8.84
2023-01-30T23:49:36.884Z,8.83
2023-01-30T23:52:04.855Z,8.81
2023-01-30T23:54:32.625Z,8.76
2023-01-30T23:57:00.412Z,8.74
2023-01-30T23:59:28.312Z,8.75
